createdAt,value
2023-04-28T00:00:37.764Z,95490.72
2023-04-28T00:03:05.743Z,95491.34
2023-04-28T00:05:33.466Z,95493.66
2023-04-28T00:08:03.390Z,95485.56
2023-04-28T00:10:32.208Z,95489.63
2023-04-28T00:13:00.061Z,95486.66
2023-04-28T00:15:27.821Z,95488.47
2023-04-28T00:17:55.610Z,95488.28
2023-04-28T00:20:23.273Z,95488.38
2023-04-28T00:22:51.201Z,95487.75
2023-04-28T00:25:20.130Z,95488.00
2023-04-28T00:27:47.800Z,95480.56
2023-04-28T00:30:15.747Z,95481.00
2023-04-28T00:32:43.451Z,95469.91
2023-04-28T00:35:11.242Z,95475.97
2023-04-28T00:37:39.391Z,95472.00
2023-04-28T00:40:08.595Z,95471.63
2023-04-28T00:42:37.657Z,95471.28
2023-04-28T00:45:07.294Z,95462.78
2023-04-28T00:47:35.924Z,95450.25
2023-04-28T00:50:05.731Z,95454.69
2023-04-28T00:52:33.657Z,95450.03
2023-04-28T00:55:01.582Z,95448.31
2023-04-28T00:57:29.284Z,95442.69
2023-04-28T00:59:58.282Z,95431.13
2023-04-28T01:02:27.514Z,95426.03
2023-04-28T01:04:57.105Z,95424.56
2023-04-28T01:07:25.293Z,95419.31
2023-04-28T01:09:53.460Z,95416.31
2023-04-28T01:12:25.466Z,95407.59
2023-04-28T01:14:55.961Z,95411.66
2023-04-28T01:17:25.343Z,95412.28
2023-04-28T01:19:53.913Z,95406.38
2023-04-28T01:22:21.627Z,95420.84
2023-04-28T01:24:50.578Z,95414.56
2023-04-28T01:27:18.158Z,95420.50
2023-04-28T01:29:46.062Z,95422.75
2023-04-28T01:32:14.369Z,95424.47
2023-04-28T01:34:42.047Z,95432.38
2023-04-28T01:37:09.689Z,95427.75
2023-04-28T01:39:38.740Z,95431.41
2023-04-28T01:42:08.016Z,95434.03
2023-04-28T01:44:35.912Z,95435.41
2023-04-28T01:47:03.537Z,95422.22
2023-04-28T01:49:31.608Z,95417.94
2023-04-28T01:51:59.209Z,95407.75
2023-04-28T01:54:27.565Z,95407.31
2023-04-28T01:56:55.700Z,95396.97
2023-04-28T01:59:25.546Z,95400.50
2023-04-28T02:01:54.729Z,95405.03
2023-04-28T02:04:22.694Z,95405.84
2023-04-28T02:06:50.431Z,95405.28
2023-04-28T02:09:18.684Z,95408.34
2023-04-28T02:11:46.452Z,95398.28
2023-04-28T02:14:14.652Z,95403.16
2023-04-28T02:16:43.944Z,95391.88
2023-04-28T02:19:12.718Z,95388.56
2023-04-28T02:21:40.339Z,95390.22
2023-04-28T02:24:09.108Z,95393.34
2023-04-28T02:26:36.767Z,95396.19
2023-04-28T02:29:04.759Z,95392.72
2023-04-28T02:31:33.521Z,95386.03
2023-04-28T02:34:02.730Z,95392.34
2023-04-28T02:36:31.875Z,95390.09
2023-04-28T02:38:59.951Z,95395.38
2023-04-28T02:41:28.083Z,95383.81
2023-04-28T02:43:56.956Z,95386.06
2023-04-28T02:46:24.588Z,95375.16
2023-04-28T02:48:52.448Z,95374.75
2023-04-28T02:51:21.559Z,95367.47
2023-04-28T02:53:49.204Z,95371.56
2023-04-28T02:56:17.465Z,95374.81
2023-04-28T02:58:45.159Z,95379.09
2023-04-28T03:01:12.805Z,95380.53
2023-04-28T03:03:41.110Z,95372.81
2023-04-28T03:06:08.962Z,95368.34
2023-04-28T03:08:38.075Z,95368.97
2023-04-28T03:11:06.726Z,95372.63
2023-04-28T03:13:35.977Z,95374.25
2023-04-28T03:16:03.761Z,95382.00
2023-04-28T03:18:31.623Z,95379.72
2023-04-28T03:20:59.537Z,95389.91
2023-04-28T03:23:28.878Z,95391.47
2023-04-28T03:25:58.391Z,95394.13
2023-04-28T03:28:27.209Z,95382.34
2023-04-28T03:30:54.852Z,95367.16
2023-04-28T03:33:22.623Z,95368.97
2023-04-28T03:35:50.508Z,95374.91
2023-04-28T03:38:18.744Z,95366.78
2023-04-28T03:40:47.220Z,95366.19
2023-04-28T03:43:16.179Z,95361.56
2023-04-28T03:46:07.158Z,95362.38
2023-04-28T03:48:34.960Z,95355.91
2023-04-28T03:51:03.477Z,95356.28
2023-04-28T03:53:32.131Z,95371.28
2023-04-28T03:56:00.158Z,95374.94
2023-04-28T03:58:29.227Z,95372.13
2023-04-28T04:00:57.242Z,95376.38
2023-04-28T04:03:26.436Z,95376.25
2023-04-28T04:05:57.396Z,95381.34
2023-04-28T04:08:25.357Z,95384.78
2023-04-28T04:10:54.742Z,95383.16
2023-04-28T04:13:22.469Z,95393.13
2023-04-28T04:15:53.074Z,95388.88
2023-04-28T04:18:22.794Z,95391.09
2023-04-28T04:21:11.875Z,95381.00
2023-04-28T04:23:39.596Z,95382.00
2023-04-28T04:26:07.535Z,95381.38
2023-04-28T04:28:35.995Z,95372.22
2023-04-28T04:31:07.093Z,95372.47
2023-04-28T04:33:34.823Z,95375.72
2023-04-28T04:36:03.200Z,95374.09
2023-04-28T04:38:31.406Z,95380.41
2023-04-28T04:41:06.019Z,95370.88
2023-04-28T04:43:33.706Z,95368.81
2023-04-28T04:46:04.128Z,95378.50
2023-04-28T04:48:34.683Z,95386.84
2023-04-28T04:51:02.441Z,95379.19
2023-04-28T04:53:30.060Z,95381.81
2023-04-28T04:55:58.702Z,95390.97
2023-04-28T04:58:27.333Z,95402.47
2023-04-28T05:01:13.767Z,95416.41
2023-04-28T05:03:43.776Z,95411.53
2023-04-28T05:06:12.585Z,95415.19
2023-04-28T05:08:44.727Z,95410.78
2023-04-28T05:11:12.658Z,95391.31
2023-04-28T05:13:41.575Z,95396.72
2023-04-28T05:16:09.681Z,95388.31
2023-04-28T05:19:05.104Z,95386.91
2023-04-28T05:21:32.733Z,95389.78
2023-04-28T05:24:01.017Z,95387.38
2023-04-28T05:26:30.139Z,95391.91
2023-04-28T05:29:03.965Z,95384.00
2023-04-28T05:31:32.232Z,95379.16
2023-04-28T05:34:00.072Z,95384.63
2023-04-28T05:36:30.316Z,95391.22
2023-04-28T05:38:58.308Z,95380.84
2023-04-28T05:41:25.982Z,95383.53
2023-04-28T05:43:53.650Z,95380.94
2023-04-28T05:46:30.239Z,95375.06
2023-04-28T05:49:00.542Z,95375.09
2023-04-28T05:51:34.722Z,95371.88
2023-04-28T05:54:03.168Z,95365.41
2023-04-28T05:56:32.486Z,95367.91
2023-04-28T05:59:04.247Z,95365.09
2023-04-28T06:01:32.420Z,95365.94
2023-04-28T06:04:00.592Z,95366.59
2023-04-28T06:06:28.866Z,95357.03
2023-04-28T06:08:58.097Z,95365.78
2023-04-28T06:11:27.179Z,95364.38
2023-04-28T06:13:54.814Z,95364.78
2023-04-28T06:16:23.633Z,95370.91
2023-04-28T06:18:51.957Z,95358.47
2023-04-28T06:21:21.520Z,95358.69
2023-04-28T06:23:49.267Z,95350.97
2023-04-28T06:26:19.190Z,95344.47
2023-04-28T06:28:46.952Z,95355.47
2023-04-28T06:31:14.766Z,95347.13
2023-04-28T06:33:42.431Z,95347.75
2023-04-28T06:36:13.878Z,95353.81
2023-04-28T06:38:42.674Z,95332.22
2023-04-28T06:41:10.771Z,95332.19
2023-04-28T06:43:40.078Z,95332.59
2023-04-28T06:46:11.998Z,95323.81
2023-04-28T06:48:39.766Z,95325.88
2023-04-28T06:51:07.555Z,95323.44
2023-04-28T06:53:36.297Z,95324.03
2023-04-28T06:56:04.496Z,95321.53
2023-04-28T06:58:32.175Z,95327.66
2023-04-28T07:01:01.830Z,95333.00
2023-04-28T07:03:29.567Z,95329.72
2023-04-28T07:05:57.356Z,95331.34
2023-04-28T07:08:24.977Z,95345.44
2023-04-28T07:10:52.584Z,95345.25
2023-04-28T07:13:20.739Z,95353.78
2023-04-28T07:15:48.485Z,95360.53
2023-04-28T07:18:17.564Z,95366.03
2023-04-28T07:20:45.311Z,95352.94
2023-04-28T07:23:13.714Z,95332.59
2023-04-28T07:25:41.759Z,95313.84
2023-04-28T07:28:10.175Z,95313.69
2023-04-28T07:30:37.931Z,95318.38
2023-04-28T07:33:05.867Z,95317.91
2023-04-28T07:35:35.050Z,95324.22
2023-04-28T07:38:03.673Z,95326.50
2023-04-28T07:40:31.308Z,95318.75
2023-04-28T07:42:59.170Z,95320.34
2023-04-28T07:45:27.341Z,95313.72
2023-04-28T07:47:55.032Z,95317.19
2023-04-28T07:50:23.383Z,95327.25
2023-04-28T07:52:52.746Z,95318.22
2023-04-28T07:55:20.398Z,95316.22
2023-04-28T07:57:49.602Z,95305.56
2023-04-28T08:00:18.376Z,95301.91
2023-04-28T08:02:46.312Z,95310.69
2023-04-28T08:05:14.711Z,95302.19
2023-04-28T08:07:42.754Z,95297.47
2023-04-28T08:10:12.798Z,95309.91
2023-04-28T08:12:41.426Z,95299.06
2023-04-28T08:15:10.207Z,95300.72
2023-04-28T08:17:38.296Z,95290.09
2023-04-28T08:20:07.401Z,95292.88
2023-04-28T08:22:35.547Z,95294.25
2023-04-28T08:25:03.430Z,95287.50
2023-04-28T08:27:34.118Z,95285.34
2023-04-28T08:30:01.870Z,95296.56
2023-04-28T08:32:29.606Z,95293.66
2023-04-28T08:34:57.233Z,95289.47
2023-04-28T08:37:25.023Z,95295.91
2023-04-28T08:39:59.811Z,95290.81
2023-04-28T08:42:30.076Z,95296.22
2023-04-28T08:45:00.282Z,95294.75
2023-04-28T08:47:34.920Z,95301.09
2023-04-28T08:50:05.857Z,95294.16
2023-04-28T08:52:34.187Z,95302.22
2023-04-28T08:55:08.067Z,95293.75
2023-04-28T08:57:40.103Z,95288.53
2023-04-28T09:00:11.775Z,95287.53
2023-04-28T09:02:42.492Z,95280.91
2023-04-28T09:05:11.594Z,95287.56
2023-04-28T09:07:40.302Z,95290.47
2023-04-28T09:10:17.971Z,95292.25
2023-04-28T09:12:45.697Z,95299.28
2023-04-28T09:15:26.525Z,95296.22
2023-04-28T09:17:54.528Z,95291.13
2023-04-28T09:20:23.292Z,95292.25
2023-04-28T09:22:51.807Z,95288.41
2023-04-28T09:25:21.294Z,95287.13
2023-04-28T09:27:49.029Z,95283.03
2023-04-28T09:30:18.092Z,95283.16
2023-04-28T09:32:45.787Z,95291.47
2023-04-28T09:35:14.580Z,95297.00
2023-04-28T09:37:43.452Z,95295.09
2023-04-28T09:40:12.550Z,95298.75
2023-04-28T09:42:42.041Z,95299.59
2023-04-28T09:45:11.826Z,95304.94
2023-04-28T09:47:42.647Z,95295.09
2023-04-28T09:50:14.282Z,95295.91
2023-04-28T09:52:44.227Z,95292.66
2023-04-28T09:55:13.234Z,95294.72
2023-04-28T09:57:41.257Z,95282.03
2023-04-28T10:00:10.390Z,95275.44
2023-04-28T10:05:12.207Z,95278.31
2023-04-28T10:07:40.378Z,95284.84
2023-04-28T10:10:08.994Z,95286.88
2023-04-28T10:12:38.793Z,95286.13
2023-04-28T10:15:09.608Z,95280.78
2023-04-28T10:17:38.283Z,95279.91
2023-04-28T10:20:08.574Z,95277.03
2023-04-28T10:23:00.465Z,95264.91
2023-04-28T10:25:29.755Z,95275.81
2023-04-28T10:27:59.204Z,95273.47
2023-04-28T10:30:29.525Z,95274.53
2023-04-28T10:33:27.469Z,95274.25
2023-04-28T10:35:55.533Z,95280.22
2023-04-28T10:38:24.710Z,95276.53
2023-04-28T10:40:53.741Z,95292.81
2023-04-28T10:43:40.463Z,95296.72
2023-04-28T10:46:09.484Z,95292.00
2023-04-28T10:48:58.792Z,95297.56
2023-04-28T10:51:30.027Z,95285.31
2023-04-28T10:54:15.094Z,95305.53
2023-04-28T10:57:16.063Z,95308.16
2023-04-28T10:59:43.736Z,95299.63
2023-04-28T11:02:44.893Z,95295.84
2023-04-28T11:05:20.182Z,95293.97
2023-04-28T11:08:33.350Z,95289.97
2023-04-28T11:11:19.636Z,95287.59
2023-04-28T11:13:48.645Z,95293.97
2023-04-28T11:16:18.392Z,95297.84
2023-04-28T11:19:14.219Z,95293.88
2023-04-28T11:21:41.825Z,95293.34
2023-04-28T11:24:11.024Z,95302.91
2023-04-28T11:26:40.034Z,95297.59
2023-04-28T11:29:08.624Z,95300.06
2023-04-28T11:31:36.626Z,95299.44
2023-04-28T11:34:06.162Z,95305.44
2023-04-28T11:36:36.444Z,95299.09
2023-04-28T11:39:07.918Z,95304.94
2023-04-28T11:41:36.505Z,95307.94
2023-04-28T11:44:12.754Z,95298.53
2023-04-28T11:46:46.865Z,95306.81
2023-04-28T11:49:15.373Z,95310.88
2023-04-28T11:51:44.830Z,95298.09
2023-04-28T11:54:14.833Z,95307.44
2023-04-28T11:56:44.800Z,95307.16
2023-04-28T11:59:14.557Z,95303.94
2023-04-28T12:01:47.629Z,95303.06
2023-04-28T12:04:16.116Z,95311.09
2023-04-28T12:06:44.035Z,95307.69
2023-04-28T12:09:21.247Z,95314.22
2023-04-28T12:11:57.483Z,95318.31
2023-04-28T12:14:27.016Z,95313.31
2023-04-28T12:16:54.674Z,95302.34
2023-04-28T12:19:22.380Z,95311.69
2023-04-28T12:22:01.273Z,95317.19
2023-04-28T12:24:29.492Z,95327.00
2023-04-28T12:27:16.652Z,95338.50
2023-04-28T12:29:47.262Z,95322.50
2023-04-28T12:32:15.917Z,95320.38
2023-04-28T12:34:45.422Z,95321.19
2023-04-28T12:37:13.673Z,95312.81
2023-04-28T12:39:42.514Z,95318.72
2023-04-28T12:42:10.331Z,95312.63
2023-04-28T12:44:39.017Z,95318.22
2023-04-28T12:47:10.782Z,95316.25
2023-04-28T12:49:39.193Z,95317.78
2023-04-28T12:52:07.433Z,95318.50
2023-04-28T12:54:35.062Z,95317.09
2023-04-28T12:57:03.134Z,95307.56
2023-04-28T12:59:31.517Z,95326.06
2023-04-28T13:01:59.684Z,95326.59
2023-04-28T13:04:28.979Z,95310.56
2023-04-28T13:06:58.473Z,95313.28
2023-04-28T13:09:26.666Z,95315.69
2023-04-28T13:11:54.541Z,95309.81
2023-04-28T13:14:22.297Z,95311.63
2023-04-28T13:16:51.747Z,95318.03
2023-04-28T13:19:19.463Z,95312.03
2023-04-28T13:21:48.581Z,95311.53
2023-04-28T13:24:16.368Z,95306.34
2023-04-28T13:26:45.202Z,95308.19
2023-04-28T13:29:14.319Z,95306.81
2023-04-28T13:31:42.566Z,95297.63
2023-04-28T13:34:15.756Z,95299.25
2023-04-28T13:36:43.590Z,95291.41
2023-04-28T13:39:14.544Z,95290.28
2023-04-28T13:41:42.514Z,95292.81
2023-04-28T13:44:10.232Z,95281.91
2023-04-28T13:46:38.092Z,95287.97
2023-04-28T13:49:05.755Z,95280.44
2023-04-28T13:51:34.023Z,95276.47
2023-04-28T13:54:04.190Z,95285.03
2023-04-28T13:56:33.411Z,95278.13
2023-04-28T13:59:01.057Z,95275.00
2023-04-28T14:01:28.823Z,95268.75
2023-04-28T14:03:56.647Z,95273.03
2023-04-28T14:06:24.602Z,95269.88
2023-04-28T14:08:52.365Z,95273.44
2023-04-28T14:11:20.016Z,95281.50
2023-04-28T14:13:49.314Z,95268.00
2023-04-28T14:16:17.024Z,95268.66
2023-04-28T14:18:44.647Z,95269.47
2023-04-28T14:21:12.235Z,95281.47
2023-04-28T14:23:40.090Z,95265.53
2023-04-28T14:26:07.848Z,95268.28
2023-04-28T14:28:35.435Z,95275.94
2023-04-28T14:31:08.623Z,95268.88
2023-04-28T14:33:36.662Z,95276.59
2023-04-28T14:36:04.956Z,95275.44
2023-04-28T14:38:32.907Z,95278.44
2023-04-28T14:41:00.576Z,95280.34
2023-04-28T14:43:28.156Z,95281.84
2023-04-28T14:45:55.766Z,95278.09
2023-04-28T14:48:24.927Z,95277.72
2023-04-28T14:50:52.519Z,95278.00
2023-04-28T14:53:20.242Z,95277.41
2023-04-28T14:55:47.905Z,95282.00
2023-04-28T14:58:15.903Z,95272.38
2023-04-28T15:00:44.222Z,95271.31
2023-04-28T15:03:12.106Z,95279.31
2023-04-28T15:05:41.144Z,95268.84
2023-04-28T15:08:08.887Z,95278.13
2023-04-28T15:10:40.364Z,95269.13
2023-04-28T15:13:09.123Z,95274.81
2023-04-28T15:15:36.934Z,95255.66
2023-04-28T15:18:05.095Z,95259.31
2023-04-28T15:20:33.750Z,95250.88
2023-04-28T15:23:02.811Z,95241.72
2023-04-28T15:25:30.550Z,95236.25
2023-04-28T15:27:58.402Z,95235.56
2023-04-28T15:30:26.058Z,95233.47
2023-04-28T15:32:53.761Z,95238.75
2023-04-28T15:35:22.022Z,95235.19
2023-04-28T15:37:52.212Z,95237.47
2023-04-28T15:40:21.584Z,95240.00
2023-04-28T15:42:51.522Z,95247.38
2023-04-28T15:45:20.910Z,95247.03
2023-04-28T15:47:50.161Z,95241.97
2023-04-28T15:50:19.766Z,95245.97
2023-04-28T15:52:49.712Z,95246.22
2023-04-28T15:55:19.340Z,95247.91
2023-04-28T15:57:49.095Z,95246.97
2023-04-28T16:00:17.639Z,95239.16
2023-04-28T16:02:46.427Z,95241.78
2023-04-28T16:05:14.270Z,95231.88
2023-04-28T16:07:42.051Z,95232.34
2023-04-28T16:10:11.503Z,95232.06
2023-04-28T16:12:39.945Z,95218.44
2023-04-28T16:15:11.244Z,95221.56
2023-04-28T16:17:40.287Z,95219.50
2023-04-28T16:20:10.099Z,95223.16
2023-04-28T16:22:39.833Z,95218.94
2023-04-28T16:25:07.979Z,95212.88
2023-04-28T16:27:36.453Z,95216.28
2023-04-28T16:30:06.228Z,95197.84
2023-04-28T16:32:36.624Z,95207.44
2023-04-28T16:35:06.189Z,95208.97
2023-04-28T16:37:33.939Z,95203.38
2023-04-28T16:40:01.636Z,95199.44
2023-04-28T16:42:29.372Z,95194.72
2023-04-28T16:44:58.475Z,95199.16
2023-04-28T16:47:26.487Z,95202.06
2023-04-28T16:49:55.431Z,95203.22
2023-04-28T16:52:23.026Z,95207.44
2023-04-28T16:54:50.679Z,95217.25
2023-04-28T16:57:18.422Z,95214.22
2023-04-28T16:59:46.287Z,95217.03
2023-04-28T17:02:13.971Z,95210.09
2023-04-28T17:04:41.856Z,95208.09
2023-04-28T17:07:10.925Z,95203.84
2023-04-28T17:09:38.731Z,95201.41
2023-04-28T17:12:06.605Z,95189.41
2023-04-28T17:14:35.553Z,95188.88
2023-04-28T17:17:04.593Z,95202.03
2023-04-28T17:19:32.666Z,95206.50
2023-04-28T17:22:00.654Z,95205.66
2023-04-28T17:24:29.605Z,95204.13
2023-04-28T17:26:57.227Z,95202.44
2023-04-28T17:29:24.831Z,95200.16
2023-04-28T17:31:53.042Z,95201.59
2023-04-28T17:34:20.966Z,95216.16
2023-04-28T17:36:48.586Z,95203.97
2023-04-28T17:39:16.804Z,95221.38
2023-04-28T17:41:46.746Z,95208.03
2023-04-28T17:44:14.528Z,95212.59
2023-04-28T17:46:42.608Z,95206.25
2023-04-28T17:49:10.921Z,95205.22
2023-04-28T17:51:38.525Z,95211.28
2023-04-28T17:54:09.378Z,95229.97
2023-04-28T17:56:38.468Z,95224.94
2023-04-28T17:59:08.814Z,95215.94
2023-04-28T18:01:36.535Z,95221.63
2023-04-28T18:04:04.810Z,95248.91
2023-04-28T18:06:32.398Z,95244.03
2023-04-28T18:09:00.004Z,95233.56
2023-04-28T18:11:28.100Z,95243.31
2023-04-28T18:13:56.053Z,95243.03
2023-04-28T18:16:25.150Z,95239.31
2023-04-28T18:18:53.102Z,95217.84
2023-04-28T18:21:21.243Z,95218.88
2023-04-28T18:23:49.082Z,95231.72
2023-04-28T18:26:16.658Z,95235.06
2023-04-28T18:28:48.185Z,95250.38
2023-04-28T18:31:16.268Z,95258.56
2023-04-28T18:33:45.382Z,95259.38
2023-04-28T18:36:13.056Z,95256.53
2023-04-28T18:38:41.248Z,95270.63
2023-04-28T18:41:16.960Z,95273.63
2023-04-28T18:43:45.081Z,95294.88
2023-04-28T18:46:12.800Z,95287.16
2023-04-28T18:48:40.929Z,95305.75
2023-04-28T18:51:09.948Z,95291.56
2023-04-28T18:53:37.622Z,95306.69
2023-04-28T18:56:05.427Z,95347.66
2023-04-28T18:58:33.243Z,95377.88
2023-04-28T19:01:00.953Z,95363.69
2023-04-28T19:03:29.230Z,95350.94
2023-04-28T19:05:57.162Z,95312.81
2023-04-28T19:08:26.195Z,95313.28
2023-04-28T19:10:53.779Z,95314.56
2023-04-28T19:13:21.482Z,95336.03
2023-04-28T19:15:53.479Z,95349.72
2023-04-28T19:18:21.186Z,95336.44
2023-04-28T19:20:50.487Z,95353.47
2023-04-28T19:23:18.054Z,95357.41
2023-04-28T19:25:47.504Z,95374.13
2023-04-28T19:28:15.104Z,95362.34
2023-04-28T19:30:42.828Z,95365.97
2023-04-28T19:33:10.462Z,95371.50
2023-04-28T19:35:38.631Z,95370.47
2023-04-28T19:38:06.255Z,95359.63
2023-04-28T19:40:34.173Z,95362.88
2023-04-28T19:43:03.117Z,95361.25
2023-04-28T19:45:30.825Z,95359.22
2023-04-28T19:47:58.514Z,95358.78
2023-04-28T19:50:26.260Z,95346.94
2023-04-28T19:52:53.908Z,95362.25
2023-04-28T19:55:23.352Z,95360.63
2023-04-28T19:57:52.137Z,95353.13
2023-04-28T20:00:21.797Z,95367.00
2023-04-28T20:02:49.821Z,95373.94
2023-04-28T20:05:17.481Z,95362.38
2023-04-28T20:07:45.080Z,95367.06
2023-04-28T20:10:13.034Z,95370.56
2023-04-28T20:12:41.095Z,95380.19
2023-04-28T20:15:09.879Z,95379.38
2023-04-28T20:17:38.968Z,95388.34
2023-04-28T20:20:08.139Z,95384.28
2023-04-28T20:22:36.270Z,95384.28
2023-04-28T20:25:06.053Z,95390.38
2023-04-28T20:27:34.555Z,95384.69
2023-04-28T20:30:02.379Z,95373.34
2023-04-28T20:32:30.055Z,95366.84
2023-04-28T20:34:59.224Z,95373.16
2023-04-28T20:37:27.179Z,95367.63
2023-04-28T20:39:54.857Z,95369.69
2023-04-28T20:42:22.455Z,95370.06
2023-04-28T20:44:50.806Z,95367.63
2023-04-28T20:47:18.832Z,95361.09
2023-04-28T20:49:47.311Z,95366.38
2023-04-28T20:52:16.271Z,95356.22
2023-04-28T20:54:43.877Z,95355.84
2023-04-28T20:57:11.495Z,95352.38
2023-04-28T20:59:39.083Z,95358.66
2023-04-28T21:02:06.729Z,95365.56
2023-04-28T21:04:34.355Z,95363.38
2023-04-28T21:07:02.300Z,95349.69
2023-04-28T21:09:31.217Z,95349.53
2023-04-28T21:11:58.932Z,95354.25
2023-04-28T21:14:26.871Z,95342.19
2023-04-28T21:16:54.777Z,95346.06
2023-04-28T21:19:22.561Z,95347.09
2023-04-28T21:21:50.301Z,95348.53
2023-04-28T21:24:17.895Z,95350.56
2023-04-28T21:26:47.540Z,95352.19
2023-04-28T21:29:15.448Z,95353.44
2023-04-28T21:31:43.257Z,95354.03
2023-04-28T21:34:10.996Z,95342.81
2023-04-28T21:36:38.725Z,95348.75
2023-04-28T21:39:07.573Z,95348.31
2023-04-28T21:41:35.192Z,95352.19
2023-04-28T21:44:04.172Z,95346.69
2023-04-28T21:46:31.968Z,95345.03
2023-04-28T21:48:59.564Z,95353.03
2023-04-28T21:51:27.574Z,95357.84
2023-04-28T21:53:55.334Z,95351.75
2023-04-28T21:56:23.060Z,95355.22
2023-04-28T21:58:50.664Z,95344.88
2023-04-28T22:01:19.916Z,95348.94
2023-04-28T22:03:48.853Z,95346.69
2023-04-28T22:06:16.719Z,95339.97
2023-04-28T22:08:44.408Z,95337.53
2023-04-28T22:11:12.420Z,95332.44
2023-04-28T22:13:40.065Z,95333.69
2023-04-28T22:16:07.828Z,95329.59
2023-04-28T22:18:36.811Z,95330.00
2023-04-28T22:21:05.450Z,95332.22
2023-04-28T22:23:33.036Z,95326.09
2023-04-28T22:26:00.872Z,95323.25
2023-04-28T22:28:28.516Z,95337.06
2023-04-28T22:30:56.288Z,95337.06
2023-04-28T22:33:24.149Z,95328.09
2023-04-28T22:35:53.439Z,95332.97
2023-04-28T22:38:21.451Z,95332.59
2023-04-28T22:40:49.157Z,95334.13
2023-04-28T22:43:16.769Z,95336.78
2023-04-28T22:45:45.632Z,95340.53
2023-04-28T22:48:13.615Z,95345.81
2023-04-28T22:50:41.416Z,95341.53
2023-04-28T22:53:10.393Z,95342.56
2023-04-28T22:55:38.521Z,95338.31
2023-04-28T22:58:06.694Z,95328.56
2023-04-28T23:00:35.784Z,95328.56
2023-04-28T23:03:04.487Z,95320.63
2023-04-28T23:05:32.707Z,95322.66
2023-04-28T23:08:00.275Z,95304.56
2023-04-28T23:10:29.315Z,95300.50
2023-04-28T23:12:57.163Z,95299.28
2023-04-28T23:15:24.768Z,95304.56
2023-04-28T23:17:52.523Z,95296.00
2023-04-28T23:20:20.254Z,95295.75
2023-04-28T23:22:47.870Z,95299.78
2023-04-28T23:25:15.650Z,95302.75
2023-04-28T23:27:44.811Z,95294.81
2023-04-28T23:30:13.678Z,95291.16
2023-04-28T23:32:42.479Z,95290.09
2023-04-28T23:35:10.586Z,95284.81
2023-04-28T23:37:38.219Z,95290.50
2023-04-28T23:40:07.070Z,95289.34
2023-04-28T23:42:34.778Z,95281.25
2023-04-28T23:45:03.772Z,95279.09
2023-04-28T23:47:31.512Z,95279.28
2023-04-28T23:49:59.123Z,95273.19
2023-04-28T23:52:27.101Z,95270.19
2023-04-28T23:54:54.683Z,95283.00
2023-04-28T23:57:22.584Z,95277.28
2023-04-28T23:59:50.368Z,95278.53
